Time;durP1;ratioP1;P1;durP2;ratioP2;P2;SDS_P1;SDS_P2;PMS_P1;PMS_P2;Temp;Humidity;BMP_temperature;BMP_pressure;BME280_temperature;BME280_humidity;BME280_pressure;Samples;Min_cycle;Max_cycle;Signal;HPM_P1;HPM_P2
2020/12/26 00:04:44;;;;;;;5.88;2.35;;;3.60;75.10;;;;;;10056383;28;20029;-73
2020/12/26 00:09:35;;;;;;;3.08;2.28;;;3.60;75.10;;;;;;10053760;28;20517;-73
2020/12/26 00:14:28;;;;;;;8.75;2.28;;;3.50;75.30;;;;;;10056525;28;20025;-74
2020/12/26 00:19:18;;;;;;;4.97;2.40;;;3.60;75.10;;;;;;10052112;28;20045;-74
2020/12/26 00:24:09;;;;;;;6.10;2.15;;;3.50;74.80;;;;;;10054436;28;20045;-74
2020/12/26 00:28:59;;;;;;;6.00;2.28;;;3.50;74.90;;;;;;10052770;28;20033;-72
2020/12/26 00:33:50;;;;;;;6.43;1.88;;;3.40;75.20;;;;;;10045708;28;20029;-73
2020/12/26 00:38:41;;;;;;;5.80;2.28;;;3.30;75.40;;;;;;10044433;28;20049;-72
2020/12/26 00:43:31;;;;;;;6.32;3.17;;;3.30;75.40;;;;;;10048546;28;20044;-76
2020/12/26 00:48:24;;;;;;;6.65;3.25;;;3.40;75.20;;;;;;10045189;28;20039;-74
2020/12/26 00:53:14;;;;;;;5.95;2.60;;;3.30;75.50;;;;;;10049447;28;20064;-74
2020/12/26 00:58:05;;;;;;;6.35;2.70;;;3.30;75.90;;;;;;10052318;28;20064;-73
2020/12/26 01:02:56;;;;;;;5.43;2.75;;;3.30;76.00;;;;;;10054453;28;20036;-74
2020/12/26 01:07:46;;;;;;;6.97;2.90;;;3.20;77.10;;;;;;10057465;28;20038;-74
2020/12/26 01:12:37;;;;;;;5.75;3.08;;;3.20;76.30;;;;;;10057316;28;20034;-73
2020/12/26 01:17:27;;;;;;;7.57;2.92;;;3.20;76.70;;;;;;10051334;28;20046;-73
2020/12/26 01:22:19;;;;;;;5.75;2.38;;;3.20;76.40;;;;;;10052689;28;20149;-74
2020/12/26 01:27:09;;;;;;;7.38;2.60;;;3.20;76.50;;;;;;10047019;28;20029;-74
2020/12/26 01:32:00;;;;;;;3.65;2.45;;;3.30;76.40;;;;;;10046121;28;20542;-74
2020/12/26 01:36:54;;;;;;;5.18;2.40;;;3.30;76.30;;;;;;10045306;28;20036;-74
2020/12/26 01:41:50;;;;;;;6.07;2.58;;;3.20;76.70;;;;;;10054157;28;20029;-74
2020/12/26 01:46:40;;;;;;;5.60;2.63;;;3.20;76.50;;;;;;10057430;28;20021;-74
2020/12/26 01:51:32;;;;;;;3.90;2.08;;;3.20;76.60;;;;;;10050648;28;20048;-73
2020/12/26 01:56:23;;;;;;;4.78;2.10;;;3.30;76.50;;;;;;10053751;28;20033;-73
2020/12/26 02:01:14;;;;;;;5.32;2.20;;;3.40;76.50;;;;;;10051982;28;20487;-73
2020/12/26 02:06:05;;;;;;;3.75;2.40;;;3.60;76.30;;;;;;10052195;28;20124;-73
2020/12/26 02:10:56;;;;;;;5.80;2.47;;;3.60;76.40;;;;;;10052466;28;20103;-73
2020/12/26 02:16:05;;;;;;;4.10;1.88;;;3.60;76.40;;;;;;10051575;28;22204;-74
2020/12/26 02:20:56;;;;;;;6.00;2.83;;;3.60;76.90;;;;;;10054172;28;20434;-73
2020/12/26 02:25:47;;;;;;;3.75;2.08;;;3.50;77.00;;;;;;10056097;28;20038;-73
2020/12/26 02:30:39;;;;;;;4.82;1.80;;;3.50;77.00;;;;;;10054330;28;20072;-74
2020/12/26 02:35:29;;;;;;;2.97;1.65;;;3.50;77.10;;;;;;10055326;28;20477;-74
2020/12/26 02:40:20;;;;;;;3.35;1.75;;;3.50;77.10;;;;;;10054213;28;20074;-74
2020/12/26 02:45:10;;;;;;;4.93;1.75;;;3.60;77.00;;;;;;10051573;28;20061;-73
2020/12/26 02:50:01;;;;;;;3.83;1.88;;;3.50;77.00;;;;;;10056536;28;20038;-74
2020/12/26 02:54:51;;;;;;;2.22;1.65;;;3.60;76.80;;;;;;10058515;28;20565;-73
2020/12/26 02:59:42;;;;;;;5.95;2.22;;;3.80;76.70;;;;;;10055248;28;20029;-74
2020/12/26 03:04:33;;;;;;;4.10;1.73;;;3.90;76.50;;;;;;10057072;28;20049;-74
2020/12/26 03:09:23;;;;;;;2.97;1.63;;;3.90;76.70;;;;;;10056108;28;20199;-74
2020/12/26 03:14:14;;;;;;;3.33;1.52;;;3.80;77.20;;;;;;10050774;28;20463;-74
2020/12/26 03:19:04;;;;;;;4.63;2.08;;;3.90;77.00;;;;;;10052138;28;20049;-75
2020/12/26 03:23:55;;;;;;;2.53;1.60;;;3.80;76.90;;;;;;10049833;28;20128;-74
2020/12/26 03:28:46;;;;;;;3.22;1.88;;;3.80;77.40;;;;;;10046120;28;20613;-74
2020/12/26 03:33:36;;;;;;;2.80;1.80;;;3.80;77.30;;;;;;10049786;28;20037;-74
2020/12/26 03:38:27;;;;;;;5.90;2.05;;;3.80;77.40;;;;;;10045942;28;20071;-73
2020/12/26 03:43:18;;;;;;;5.25;1.98;;;3.80;77.40;;;;;;10061045;28;20034;-73
2020/12/26 03:48:08;;;;;;;3.83;1.65;;;3.80;77.40;;;;;;10053020;28;20060;-74
2020/12/26 03:52:59;;;;;;;7.93;2.30;;;3.80;77.60;;;;;;10048706;28;20045;-69
2020/12/26 03:57:49;;;;;;;4.15;1.88;;;3.90;77.20;;;;;;10037022;28;20033;-70
2020/12/26 04:02:40;;;;;;;3.25;1.77;;;3.70;77.90;;;;;;10042047;28;20048;-69
2020/12/26 04:07:31;;;;;;;4.97;2.90;;;3.70;78.00;;;;;;10042826;28;20481;-74
2020/12/26 04:12:22;;;;;;;8.10;3.33;;;3.80;78.10;;;;;;10046207;28;20041;-69
2020/12/26 04:17:13;;;;;;;5.90;2.53;;;3.70;78.10;;;;;;10043720;28;20499;-69
2020/12/26 04:22:03;;;;;;;6.97;3.72;;;3.60;78.50;;;;;;10045598;28;20049;-69
2020/12/26 04:26:54;;;;;;;4.80;3.20;;;3.70;78.80;;;;;;10050380;28;22240;-69
2020/12/26 04:31:45;;;;;;;8.52;3.40;;;3.70;78.20;;;;;;10048125;28;20038;-70
2020/12/26 04:36:36;;;;;;;6.70;3.35;;;3.60;78.60;;;;;;10042443;28;20039;-69
2020/12/26 04:41:28;;;;;;;4.88;3.13;;;3.70;78.80;;;;;;10042837;28;20049;-69
2020/12/26 04:46:19;;;;;;;7.88;3.08;;;3.60;79.10;;;;;;10048801;28;20380;-69
2020/12/26 04:51:17;;;;;;;7.75;3.15;;;3.50;79.10;;;;;;10046979;28;20096;-73
2020/12/26 04:56:07;;;;;;;5.03;3.08;;;3.50;79.30;;;;;;10048330;28;20361;-74
2020/12/26 05:01:00;;;;;;;5.55;3.13;;;3.50;79.30;;;;;;10049725;28;20026;-74
2020/12/26 05:05:51;;;;;;;6.57;2.72;;;3.40;79.40;;;;;;10053628;28;20064;-73
2020/12/26 05:10:43;;;;;;;6.45;3.28;;;3.40;79.50;;;;;;10048567;28;20427;-74
2020/12/26 05:15:34;;;;;;;5.07;2.97;;;3.30;79.70;;;;;;10044972;28;20037;-74
2020/12/26 05:20:26;;;;;;;7.28;3.38;;;3.20;79.90;;;;;;10056364;28;20056;-74
2020/12/26 05:25:16;;;;;;;8.13;3.70;;;3.30;80.20;;;;;;10051544;28;20504;-74
2020/12/26 05:30:07;;;;;;;5.30;2.95;;;3.30;80.00;;;;;;10050410;28;20034;-73
2020/12/26 05:35:06;;;;;;;6.40;3.35;;;3.20;80.00;;;;;;10062989;28;20036;-73
2020/12/26 05:39:59;;;;;;;6.63;3.55;;;3.20;80.10;;;;;;10056453;28;20063;-73
2020/12/26 05:44:50;;;;;;;7.13;2.97;;;3.30;80.10;;;;;;10061309;28;20376;-73
2020/12/26 05:49:41;;;;;;;8.50;3.92;;;3.30;80.20;;;;;;10055833;28;20033;-68
2020/12/26 05:54:32;;;;;;;4.80;3.38;;;3.20;80.40;;;;;;10054509;28;20033;-69
2020/12/26 05:59:24;;;;;;;6.00;3.15;;;3.20;80.60;;;;;;10049101;28;20025;-71
2020/12/26 06:04:19;;;;;;;6.75;3.20;;;3.20;80.80;;;;;;10050420;28;20117;-69
2020/12/26 06:09:12;;;;;;;6.35;3.60;;;3.20;80.90;;;;;;10052611;28;20056;-70
2020/12/26 06:14:02;;;;;;;6.40;3.42;;;3.20;80.80;;;;;;10050989;28;20052;-69
2020/12/26 06:18:58;;;;;;;6.65;3.70;;;3.10;81.00;;;;;;10050087;28;20060;-71
2020/12/26 06:23:50;;;;;;;7.07;3.28;;;3.20;81.10;;;;;;10050189;28;20041;-70
2020/12/26 06:28:43;;;;;;;6.18;3.13;;;3.20;80.90;;;;;;10053300;28;20179;-70
2020/12/26 06:33:44;;;;;;;5.63;2.85;;;3.20;81.20;;;;;;10052205;28;20057;-70
2020/12/26 06:38:35;;;;;;;6.32;3.30;;;3.20;81.40;;;;;;10053095;28;20051;-70
2020/12/26 06:43:56;;;;;;;7.15;3.38;;;3.30;81.20;;;;;;10043965;28;20044;-69
2020/12/26 06:48:49;;;;;;;5.45;2.90;;;3.20;81.30;;;;;;10050118;28;20037;-69
2020/12/26 06:53:39;;;;;;;5.47;3.50;;;3.20;81.40;;;;;;10047085;28;20112;-69
2020/12/26 06:58:30;;;;;;;7.35;4.93;;;3.20;81.50;;;;;;10043899;28;20120;-69
2020/12/26 07:03:28;;;;;;;6.63;3.53;;;3.20;81.60;;;;;;10065398;28;20060;-68
2020/12/26 07:08:32;;;;;;;8.32;3.60;;;3.20;81.50;;;;;;10050952;28;20051;-70
2020/12/26 07:13:43;;;;;;;6.03;3.38;;;3.20;81.90;;;;;;10044627;28;20032;-69
2020/12/26 07:18:33;;;;;;;7.20;3.05;;;3.20;81.90;;;;;;10046886;28;20060;-69
2020/12/26 07:23:24;;;;;;;6.30;3.15;;;3.20;81.60;;;;;;10049673;28;20037;-69
2020/12/26 07:28:15;;;;;;;5.47;3.15;;;3.20;82.00;;;;;;10045691;28;20042;-69
2020/12/26 07:33:05;;;;;;;3.75;2.88;;;3.20;82.00;;;;;;10047767;28;20026;-69
2020/12/26 07:38:11;;;;;;;6.40;3.45;;;3.20;82.00;;;;;;10045170;28;20164;-69
2020/12/26 07:43:08;;;;;;;6.82;3.60;;;3.20;81.90;;;;;;10049466;28;20044;-70
2020/12/26 07:48:00;;;;;;;6.35;2.75;;;3.20;81.90;;;;;;10045790;28;20033;-69
2020/12/26 07:52:53;;;;;;;7.55;2.65;;;3.20;82.00;;;;;;10040908;28;20163;-69
2020/12/26 07:57:45;;;;;;;4.60;3.03;;;3.10;82.00;;;;;;10041956;28;20040;-69
2020/12/26 08:02:35;;;;;;;6.00;3.00;;;3.20;82.00;;;;;;10047796;28;20029;-68
2020/12/26 08:07:32;;;;;;;4.97;2.72;;;3.20;82.00;;;;;;10044215;28;20034;-68
2020/12/26 08:12:23;;;;;;;3.22;2.25;;;3.20;81.90;;;;;;10045021;28;20030;-69
2020/12/26 08:17:19;;;;;;;5.10;2.38;;;3.20;81.90;;;;;;10042520;28;20054;-69
2020/12/26 08:22:13;;;;;;;4.80;2.28;;;3.30;82.10;;;;;;10047523;28;20125;-69
2020/12/26 08:27:06;;;;;;;5.15;2.90;;;3.20;82.10;;;;;;10051358;28;20033;-69
2020/12/26 08:32:05;;;;;;;5.72;2.75;;;3.20;82.00;;;;;;10045992;28;20476;-69
2020/12/26 08:37:09;;;;;;;6.90;3.40;;;3.40;81.90;;;;;;10040929;28;20026;-69
2020/12/26 08:42:00;;;;;;;4.53;2.75;;;3.40;81.70;;;;;;10043207;28;20045;-69
2020/12/26 08:46:51;;;;;;;8.43;3.17;;;3.50;81.60;;;;;;10042886;28;20025;-69
2020/12/26 08:51:43;;;;;;;6.15;4.63;;;3.50;81.50;;;;;;10040675;28;20025;-69
2020/12/26 08:56:38;;;;;;;8.18;3.10;;;3.40;81.60;;;;;;10046375;28;20021;-69
2020/12/26 09:01:29;;;;;;;6.93;3.00;;;3.50;81.70;;;;;;10043844;28;20068;-69
2020/12/26 09:06:39;;;;;;;3.65;2.53;;;3.50;81.30;;;;;;10047205;28;20089;-68
2020/12/26 09:11:30;;;;;;;5.03;2.92;;;3.50;81.40;;;;;;10051874;28;20057;-69
2020/12/26 09:16:20;;;;;;;5.47;3.38;;;3.50;81.40;;;;;;10048199;28;20061;-71
2020/12/26 09:21:26;;;;;;;7.80;3.90;;;3.60;81.30;;;;;;10048314;28;20486;-68
2020/12/26 09:26:16;;;;;;;6.30;3.60;;;3.70;81.00;;;;;;10050939;28;20041;-68
2020/12/26 09:31:10;;;;;;;6.50;3.00;;;3.80;80.50;;;;;;10048548;28;20126;-68
2020/12/26 09:36:08;;;;;;;6.60;3.08;;;3.70;80.80;;;;;;10050144;28;20104;-70
2020/12/26 09:41:09;;;;;;;5.95;2.97;;;3.70;80.80;;;;;;10054631;28;20037;-70
2020/12/26 09:46:00;;;;;;;8.93;3.70;;;3.80;80.80;;;;;;10053418;28;20033;-69
2020/12/26 09:50:50;;;;;;;8.55;3.88;;;3.80;80.80;;;;;;10054151;28;20034;-69
2020/12/26 09:55:41;;;;;;;7.25;3.38;;;3.90;80.20;;;;;;10047287;28;20050;-68
2020/12/26 10:00:31;;;;;;;6.93;3.90;;;3.90;80.50;;;;;;10051653;28;20091;-68
2020/12/26 10:05:22;;;;;;;6.30;3.45;;;3.90;80.40;;;;;;10055452;28;20041;-69
2020/12/26 10:10:12;;;;;;;5.60;3.53;;;3.80;80.30;;;;;;10048223;28;20751;-69
2020/12/26 10:15:04;;;;;;;5.72;3.47;;;4.00;80.30;;;;;;10053293;28;20025;-69
2020/12/26 10:19:55;;;;;;;9.40;3.47;;;4.20;79.70;;;;;;10048229;28;20664;-69
2020/12/26 10:24:45;;;;;;;6.18;4.00;;;4.20;80.30;;;;;;10047882;28;20144;-70
2020/12/26 10:29:36;;;;;;;8.07;3.88;;;4.50;79.40;;;;;;10054742;28;20030;-69
2020/12/26 10:34:26;;;;;;;7.50;3.38;;;4.70;79.00;;;;;;10050273;28;20120;-70
2020/12/26 10:39:18;;;;;;;11.23;5.47;;;4.90;79.00;;;;;;10050295;28;20037;-69
2020/12/26 10:44:10;;;;;;;5.93;3.85;;;5.10;78.50;;;;;;10050573;28;20030;-69
2020/12/26 10:49:01;;;;;;;9.50;5.22;;;5.20;78.30;;;;;;10044214;28;20041;-69
2020/12/26 10:53:52;;;;;;;8.38;3.92;;;5.20;78.20;;;;;;10046916;28;20034;-69
2020/12/26 10:58:42;;;;;;;8.70;3.50;;;5.30;78.20;;;;;;10049599;28;20035;-69
2020/12/26 11:03:33;;;;;;;6.05;2.97;;;5.30;78.30;;;;;;10054928;28;20144;-69
2020/12/26 11:08:23;;;;;;;9.68;3.85;;;5.20;78.00;;;;;;10054172;28;20037;-69
2020/12/26 11:13:14;;;;;;;10.38;4.40;;;4.90;78.10;;;;;;10049920;28;20037;-69
2020/12/26 11:18:05;;;;;;;6.00;3.58;;;4.60;77.70;;;;;;10044672;28;20495;-70
2020/12/26 11:22:55;;;;;;;8.52;4.32;;;4.60;77.80;;;;;;10050012;28;20056;-74
2020/12/26 11:27:46;;;;;;;5.15;3.53;;;4.70;77.40;;;;;;10052655;28;20030;-74
2020/12/26 11:32:37;;;;;;;7.63;3.58;;;4.80;76.80;;;;;;10053021;28;20510;-70
2020/12/26 11:37:27;;;;;;;7.18;3.50;;;5.10;76.60;;;;;;10049418;28;20502;-69
2020/12/26 11:42:18;;;;;;;10.75;4.50;;;5.20;75.90;;;;;;10048278;28;20033;-69
2020/12/26 11:47:09;;;;;;;8.93;4.72;;;5.30;76.00;;;;;;10048329;28;20033;-69
2020/12/26 11:51:59;;;;;;;6.15;3.40;;;5.40;76.00;;;;;;10052818;28;22009;-73
2020/12/26 11:56:51;;;;;;;8.15;4.68;;;5.50;76.00;;;;;;10051513;28;20557;-74
2020/12/26 12:01:42;;;;;;;9.95;3.72;;;5.70;75.10;;;;;;10050052;28;20075;-69
2020/12/26 12:06:33;;;;;;;8.25;3.92;;;5.90;76.00;;;;;;10039558;28;20052;-69
2020/12/26 12:11:23;;;;;;;5.20;3.78;;;6.00;75.50;;;;;;10048089;28;20072;-71
2020/12/26 12:16:14;;;;;;;8.30;3.92;;;5.70;75.60;;;;;;10050202;28;20034;-70
2020/12/26 12:21:04;;;;;;;9.23;4.47;;;5.50;76.20;;;;;;10049449;28;20089;-69
2020/12/26 12:25:55;;;;;;;9.38;4.03;;;5.40;75.90;;;;;;10053061;28;20028;-70
2020/12/26 12:30:45;;;;;;;8.23;4.75;;;5.40;75.60;;;;;;10045972;28;20048;-70
2020/12/26 12:35:36;;;;;;;6.53;4.15;;;5.40;75.30;;;;;;10043665;28;20504;-69
2020/12/26 12:40:26;;;;;;;6.53;3.85;;;5.40;75.30;;;;;;10045629;28;20033;-69
2020/12/26 12:45:17;;;;;;;8.25;3.25;;;5.40;74.90;;;;;;10042970;28;20558;-69
2020/12/26 12:50:09;;;;;;;5.82;3.05;;;5.60;74.60;;;;;;10044375;28;20403;-73
2020/12/26 12:54:59;;;;;;;6.80;3.17;;;5.60;74.20;;;;;;10046320;28;20112;-74
2020/12/26 12:59:50;;;;;;;5.57;2.95;;;5.50;74.10;;;;;;10046245;28;20121;-73
2020/12/26 13:04:40;;;;;;;9.18;3.33;;;5.60;73.60;;;;;;10049133;28;20064;-75
2020/12/26 13:09:31;;;;;;;8.05;3.65;;;5.80;73.30;;;;;;10055522;28;20045;-74
2020/12/26 13:14:22;;;;;;;5.65;3.83;;;5.90;73.10;;;;;;10055686;28;20041;-73
2020/12/26 13:19:13;;;;;;;6.18;3.65;;;6.00;72.80;;;;;;10043916;28;20056;-73
2020/12/26 13:24:03;;;;;;;7.28;2.88;;;6.10;73.10;;;;;;10047960;28;20034;-73
2020/12/26 13:28:54;;;;;;;6.47;3.10;;;6.20;72.70;;;;;;10048647;28;20438;-74
2020/12/26 13:33:45;;;;;;;6.57;3.30;;;6.10;72.80;;;;;;10054578;28;20022;-74
2020/12/26 13:38:35;;;;;;;7.45;3.13;;;6.00;72.40;;;;;;10052349;28;20033;-74
2020/12/26 13:43:26;;;;;;;4.47;2.65;;;6.00;72.40;;;;;;10051385;28;20094;-74
2020/12/26 13:48:16;;;;;;;3.92;2.65;;;6.00;72.30;;;;;;10050958;28;20033;-75
2020/12/26 13:53:07;;;;;;;6.35;2.97;;;5.90;72.10;;;;;;10054883;28;19920;-74
2020/12/26 13:57:58;;;;;;;5.20;2.80;;;5.90;71.80;;;;;;10051869;28;20037;-74
2020/12/26 14:02:48;;;;;;;6.22;2.78;;;6.00;71.60;;;;;;10054096;28;20048;-74
2020/12/26 14:07:40;;;;;;;5.13;2.90;;;6.00;71.50;;;;;;10054364;28;20112;-73
2020/12/26 14:12:31;;;;;;;5.32;2.78;;;5.80;71.60;;;;;;10061115;28;20448;-74
2020/12/26 14:17:21;;;;;;;7.28;3.08;;;5.90;71.50;;;;;;10071907;28;20033;-72
2020/12/26 14:22:12;;;;;;;4.05;2.13;;;5.90;71.30;;;;;;10059817;28;20090;-74
2020/12/26 14:27:02;;;;;;;5.40;3.17;;;5.70;71.60;;;;;;10058488;28;20021;-73
2020/12/26 14:31:53;;;;;;;4.22;3.22;;;5.70;71.80;;;;;;10053768;28;20025;-74
2020/12/26 14:36:46;;;;;;;7.22;3.58;;;5.70;71.60;;;;;;10063607;28;20047;-72
2020/12/26 14:41:36;;;;;;;8.18;2.15;;;5.70;71.60;;;;;;10060626;28;20399;-73
2020/12/26 14:46:27;;;;;;;5.72;2.65;;;5.50;71.50;;;;;;10063680;28;20033;-73
2020/12/26 14:51:17;;;;;;;4.47;2.13;;;5.50;71.50;;;;;;10057273;28;20038;-73
2020/12/26 14:56:14;;;;;;;5.72;2.60;;;5.40;71.40;;;;;;10044571;28;20038;-73
2020/12/26 15:01:05;;;;;;;5.30;3.30;;;5.40;71.20;;;;;;10058576;28;20056;-73
2020/12/26 15:05:55;;;;;;;5.60;2.58;;;5.40;71.40;;;;;;10057212;28;20483;-74
2020/12/26 15:10:46;;;;;;;5.03;3.35;;;5.40;71.40;;;;;;10055294;28;20419;-73
2020/12/26 15:15:36;;;;;;;4.68;2.67;;;5.40;71.20;;;;;;10055259;28;20108;-73
2020/12/26 15:20:27;;;;;;;3.72;2.15;;;5.30;71.20;;;;;;10057334;28;20052;-74
2020/12/26 15:25:17;;;;;;;3.85;2.28;;;5.20;71.30;;;;;;10054341;28;20045;-74
2020/12/26 15:30:08;;;;;;;5.32;2.72;;;5.30;71.30;;;;;;10049844;28;20057;-73
2020/12/26 15:34:58;;;;;;;7.85;2.80;;;5.30;71.20;;;;;;10052471;28;20087;-74
2020/12/26 15:39:49;;;;;;;4.07;2.88;;;5.30;71.20;;;;;;10056630;28;20163;-74
2020/12/26 15:44:40;;;;;;;3.72;2.20;;;5.20;71.20;;;;;;10059529;28;20396;-73
2020/12/26 15:49:30;;;;;;;5.30;2.42;;;5.10;71.20;;;;;;10055633;28;20508;-74
2020/12/26 15:54:21;;;;;;;5.75;2.60;;;5.10;71.80;;;;;;10052972;28;20586;-74
2020/12/26 15:59:12;;;;;;;5.30;2.40;;;5.20;71.20;;;;;;10056604;28;20097;-74
2020/12/26 16:04:02;;;;;;;7.75;3.95;;;5.20;70.90;;;;;;10053869;28;20092;-74
2020/12/26 16:08:53;;;;;;;6.20;2.70;;;5.10;71.20;;;;;;10044612;28;20042;-74
2020/12/26 16:13:44;;;;;;;4.30;2.38;;;5.10;71.40;;;;;;10046969;28;20411;-75
2020/12/26 16:18:36;;;;;;;5.38;2.95;;;5.10;71.30;;;;;;10046915;28;20115;-75
2020/12/26 16:23:26;;;;;;;4.63;2.78;;;5.00;71.50;;;;;;10047058;28;20037;-75
2020/12/26 16:28:17;;;;;;;6.03;2.92;;;4.90;71.40;;;;;;10051352;28;20030;-69
2020/12/26 16:33:08;;;;;;;6.75;3.38;;;4.80;71.30;;;;;;10044207;28;20395;-70
2020/12/26 16:37:58;;;;;;;8.10;2.78;;;4.70;71.20;;;;;;10047841;28;20055;-70
2020/12/26 16:42:49;;;;;;;9.98;3.58;;;4.50;71.30;;;;;;10041266;28;20047;-70
2020/12/26 16:47:42;;;;;;;10.77;4.80;;;4.50;71.40;;;;;;10043973;28;20510;-69
2020/12/26 16:52:33;;;;;;;18.63;8.40;;;4.40;71.30;;;;;;10045947;28;20033;-71
2020/12/26 16:57:26;;;;;;;15.07;6.40;;;4.40;71.20;;;;;;10044929;28;20033;-69
2020/12/26 17:02:17;;;;;;;17.48;8.07;;;4.30;71.10;;;;;;10048215;28;20037;-69
2020/12/26 17:07:07;;;;;;;8.35;4.22;;;4.30;71.00;;;;;;10038098;28;20084;-69
2020/12/26 17:11:58;;;;;;;12.55;6.00;;;4.20;71.00;;;;;;10049100;28;20636;-69
2020/12/26 17:16:52;;;;;;;7.43;3.75;;;4.20;71.00;;;;;;10043969;28;20368;-69
2020/12/26 17:21:43;;;;;;;6.28;3.75;;;4.10;71.20;;;;;;10048458;28;20160;-75
2020/12/26 17:26:34;;;;;;;7.18;2.70;;;4.00;71.00;;;;;;10058838;28;20495;-75
2020/12/26 17:31:26;;;;;;;4.32;2.67;;;4.00;71.00;;;;;;10066351;28;20123;-75
2020/12/26 17:36:17;;;;;;;7.63;3.08;;;4.00;71.00;;;;;;10058912;28;20030;-76
2020/12/26 17:41:12;;;;;;;6.10;3.10;;;3.90;70.90;;;;;;10059743;28;20037;-75
2020/12/26 17:46:04;;;;;;;11.97;4.67;;;3.90;71.00;;;;;;10066242;28;20132;-75
2020/12/26 17:50:54;;;;;;;9.95;3.25;;;3.80;71.60;;;;;;10062051;28;20129;-74
2020/12/26 17:55:45;;;;;;;8.90;3.70;;;3.80;71.10;;;;;;10055421;28;20043;-74
2020/12/26 18:00:35;;;;;;;7.38;4.43;;;3.80;71.00;;;;;;10053999;28;20088;-75
2020/12/26 18:05:26;;;;;;;8.35;5.10;;;3.70;71.00;;;;;;10058263;28;20037;-74
2020/12/26 18:10:17;;;;;;;8.43;4.28;;;3.60;71.10;;;;;;10055655;28;20124;-76
2020/12/26 18:15:07;;;;;;;7.72;3.80;;;3.60;71.20;;;;;;10054066;28;20380;-69
2020/12/26 18:19:58;;;;;;;7.13;4.22;;;3.60;71.20;;;;;;10049421;28;20055;-69
2020/12/26 18:24:48;;;;;;;9.25;3.53;;;3.60;71.20;;;;;;10053815;28;20107;-69
2020/12/26 18:29:39;;;;;;;9.88;3.72;;;3.50;71.40;;;;;;10047661;28;20044;-70
2020/12/26 18:34:29;;;;;;;7.35;3.75;;;3.50;71.50;;;;;;10049869;28;20047;-69
2020/12/26 18:39:21;;;;;;;7.40;4.15;;;3.50;71.50;;;;;;10047991;28;20037;-68
2020/12/26 18:44:11;;;;;;;8.63;4.65;;;3.40;71.60;;;;;;10052193;28;20128;-69
2020/12/26 18:49:02;;;;;;;8.88;4.65;;;3.40;71.50;;;;;;10050412;28;20158;-69
2020/12/26 18:53:54;;;;;;;8.88;4.32;;;3.40;71.50;;;;;;10053449;28;21010;-69
2020/12/26 18:58:45;;;;;;;8.90;4.30;;;3.40;71.60;;;;;;10051391;28;20029;-68
2020/12/26 19:03:36;;;;;;;7.18;4.13;;;3.40;71.70;;;;;;10054831;28;20021;-69
2020/12/26 19:08:27;;;;;;;14.13;6.72;;;3.30;71.60;;;;;;10055078;28;20041;-69
2020/12/26 19:13:19;;;;;;;10.70;6.57;;;3.30;71.80;;;;;;10050555;28;20033;-69
2020/12/26 19:18:09;;;;;;;8.65;4.53;;;3.20;71.80;;;;;;10047295;28;20530;-69
2020/12/26 19:23:01;;;;;;;8.35;4.43;;;3.10;72.10;;;;;;10047913;28;20041;-68
2020/12/26 19:27:52;;;;;;;8.88;4.32;;;3.10;72.10;;;;;;10049361;28;20112;-68
2020/12/26 19:32:42;;;;;;;5.72;3.55;;;3.00;72.30;;;;;;10048903;28;20029;-69
2020/12/26 19:37:33;;;;;;;9.43;4.75;;;3.00;72.40;;;;;;10047012;28;20072;-68
2020/12/26 19:42:23;;;;;;;8.38;4.28;;;2.90;72.70;;;;;;10049839;28;20052;-69
2020/12/26 19:47:14;;;;;;;8.05;3.78;;;2.90;72.70;;;;;;10051264;28;20060;-69
2020/12/26 19:52:06;;;;;;;10.30;4.22;;;2.90;72.70;;;;;;10042671;28;20080;-69
2020/12/26 19:57:03;;;;;;;9.18;4.40;;;2.90;72.60;;;;;;10047922;28;20033;-69
2020/12/26 20:01:55;;;;;;;7.93;4.25;;;2.80;72.80;;;;;;10044249;28;20049;-70
2020/12/26 20:06:45;;;;;;;8.23;4.60;;;2.80;72.90;;;;;;10043093;28;20056;-69
2020/12/26 20:11:37;;;;;;;12.80;5.88;;;2.70;72.90;;;;;;10049715;28;20511;-70
2020/12/26 20:16:27;;;;;;;16.23;6.85;;;2.70;73.00;;;;;;10045211;28;20033;-69
2020/12/26 20:21:18;;;;;;;12.75;6.30;;;2.60;73.00;;;;;;10048771;28;20539;-76
2020/12/26 20:26:11;;;;;;;7.57;3.63;;;2.60;73.00;;;;;;10053267;28;20061;-75
2020/12/26 20:31:12;;;;;;;6.82;3.50;;;2.60;73.00;;;;;;10059237;28;20706;-75
2020/12/26 20:36:04;;;;;;;10.35;3.97;;;2.50;72.90;;;;;;10054145;28;20036;-70
2020/12/26 20:40:55;;;;;;;5.25;3.42;;;2.40;73.20;;;;;;10051044;28;20506;-70
2020/12/26 20:45:45;;;;;;;5.30;2.30;;;2.40;73.40;;;;;;10048325;28;20037;-70
2020/12/26 20:50:36;;;;;;;3.83;2.40;;;2.30;73.40;;;;;;10048418;28;20060;-77
2020/12/26 20:55:26;;;;;;;5.47;2.40;;;2.40;73.40;;;;;;10044794;28;20104;-69
2020/12/26 21:00:17;;;;;;;4.40;2.85;;;2.30;73.30;;;;;;10052498;28;20104;-75
2020/12/26 21:05:08;;;;;;;5.43;2.83;;;2.30;73.40;;;;;;10046093;28;20033;-70
2020/12/26 21:09:58;;;;;;;5.45;2.47;;;2.30;73.50;;;;;;10047512;28;22402;-68
2020/12/26 21:14:49;;;;;;;5.25;2.72;;;2.20;73.90;;;;;;10039872;28;20029;-69
2020/12/26 21:19:39;;;;;;;4.72;2.72;;;2.20;73.80;;;;;;10046922;28;20044;-74
2020/12/26 21:24:30;;;;;;;4.93;2.78;;;2.20;73.80;;;;;;10045272;28;20033;-77
2020/12/26 21:29:20;;;;;;;6.82;3.22;;;2.20;74.00;;;;;;10047744;28;20774;-77
2020/12/26 21:34:12;;;;;;;7.20;3.25;;;2.10;74.00;;;;;;10048370;28;20037;-76
2020/12/26 21:39:07;;;;;;;5.93;2.90;;;2.10;74.10;;;;;;10054410;28;20535;-75
2020/12/26 21:43:57;;;;;;;9.15;3.45;;;2.10;74.30;;;;;;10061065;28;20369;-77
2020/12/26 21:48:48;;;;;;;7.32;3.30;;;2.00;74.50;;;;;;10050680;28;20041;-76
2020/12/26 21:53:43;;;;;;;7.68;3.88;;;2.00;74.60;;;;;;10049276;28;20060;-76
2020/12/26 21:58:52;;;;;;;8.85;3.65;;;1.90;74.80;;;;;;10053420;28;20419;-76
2020/12/26 22:03:44;;;;;;;4.50;2.55;;;1.90;75.00;;;;;;10053193;28;20030;-75
2020/12/26 22:08:36;;;;;;;5.47;3.03;;;1.90;75.20;;;;;;10050445;28;20045;-75
2020/12/26 22:13:27;;;;;;;10.43;3.67;;;2.00;75.10;;;;;;10059605;28;20026;-75
2020/12/26 22:18:17;;;;;;;8.75;3.47;;;1.90;75.30;;;;;;10060589;28;20055;-74
2020/12/26 22:23:09;;;;;;;12.02;3.78;;;1.80;75.50;;;;;;10058635;28;20041;-75
2020/12/26 22:28:00;;;;;;;6.22;3.22;;;1.80;75.50;;;;;;10059378;28;20026;-75
2020/12/26 22:32:51;;;;;;;11.25;4.35;;;1.80;75.60;;;;;;10057811;28;20037;-75
2020/12/26 22:37:41;;;;;;;7.30;3.58;;;1.80;75.60;;;;;;10063861;28;20473;-75
2020/12/26 22:42:32;;;;;;;9.88;5.15;;;1.70;76.20;;;;;;10056903;28;20025;-69
2020/12/26 22:47:23;;;;;;;8.70;4.40;;;1.70;75.90;;;;;;10051645;28;20029;-70
2020/12/26 22:52:13;;;;;;;6.72;2.92;;;1.80;75.70;;;;;;10055771;28;20389;-75
2020/12/26 22:57:04;;;;;;;12.23;4.13;;;1.70;76.30;;;;;;10056237;28;20396;-75
2020/12/26 23:01:55;;;;;;;7.43;3.83;;;1.70;76.20;;;;;;10040798;28;20404;-69
2020/12/26 23:06:47;;;;;;;13.88;4.60;;;1.60;76.30;;;;;;10052792;28;20025;-74
2020/12/26 23:11:37;;;;;;;8.57;3.70;;;1.70;76.30;;;;;;10053317;28;20040;-73
2020/12/26 23:16:28;;;;;;;7.35;3.70;;;1.70;76.40;;;;;;10060756;28;20028;-73
2020/12/26 23:21:22;;;;;;;7.00;3.15;;;1.70;76.50;;;;;;10053253;28;20045;-76
2020/12/26 23:26:13;;;;;;;6.55;3.47;;;1.60;76.60;;;;;;10059154;28;20049;-75
2020/12/26 23:31:04;;;;;;;6.50;3.50;;;1.60;76.90;;;;;;10052816;28;20099;-75
2020/12/26 23:35:54;;;;;;;6.13;3.50;;;1.60;76.80;;;;;;10057567;28;20029;-76
2020/12/26 23:40:45;;;;;;;7.18;3.08;;;1.60;76.80;;;;;;10053708;28;20038;-75
2020/12/26 23:45:35;;;;;;;8.15;3.90;;;1.50;77.10;;;;;;10051985;28;20022;-75
2020/12/26 23:50:26;;;;;;;8.90;3.53;;;1.50;77.20;;;;;;10056723;28;20057;-75
2020/12/26 23:55:16;;;;;;;9.23;3.47;;;1.60;77.10;;;;;;10058542;28;20038;-75
